Time;durP1;ratioP1;P1;durP2;ratioP2;P2;SDS_P1;SDS_P2;PMS_P1;PMS_P2;Temp;Humidity;BMP_temperature;BMP_pressure;BME280_temperature;BME280_humidity;BME280_pressure;Samples;Min_cycle;Max_cycle;Signal;HPM_P1;HPM_P2
2022/11/01 00:00:24;;;;;;;26.60;14.27;;;13.30;99.90;;;;;;5053088;28;20555;-42
2022/11/01 00:02:51;;;;;;;30.75;14.38;;;13.20;99.90;;;;;;5054114;28;20060;-42
2022/11/01 00:05:18;;;;;;;26.23;13.73;;;13.30;99.90;;;;;;5036831;28;20073;-43
2022/11/01 00:07:44;;;;;;;25.00;13.73;;;13.20;99.90;;;;;;5032540;28;20086;-41
2022/11/01 00:10:11;;;;;;;30.55;14.40;;;13.30;99.90;;;;;;5050195;28;20053;-41
2022/11/01 00:12:38;;;;;;;25.13;13.30;;;13.20;99.90;;;;;;5042398;28;20069;-42
2022/11/01 00:15:07;;;;;;;28.58;13.82;;;13.20;99.90;;;;;;5033474;28;20563;-43
2022/11/01 00:17:34;;;;;;;26.50;13.02;;;13.30;99.90;;;;;;5033095;28;20055;-41
2022/11/01 00:20:01;;;;;;;29.77;13.88;;;13.20;99.90;;;;;;5024483;28;20080;-42
2022/11/01 00:22:28;;;;;;;27.75;13.60;;;13.20;99.90;;;;;;5052509;28;20049;-42
2022/11/01 00:24:55;;;;;;;23.85;12.65;;;13.30;99.90;;;;;;5049122;28;20562;-42
2022/11/01 00:27:21;;;;;;;24.92;12.55;;;13.30;99.90;;;;;;5037700;28;20140;-41
2022/11/01 00:29:48;;;;;;;30.48;13.65;;;13.20;99.90;;;;;;5052648;28;20144;-42
2022/11/01 00:32:16;;;;;;;26.08;11.90;;;13.30;99.90;;;;;;5035522;28;20106;-41
2022/11/01 00:34:43;;;;;;;22.77;11.68;;;13.30;99.90;;;;;;5036076;28;20517;-41
2022/11/01 00:37:10;;;;;;;19.52;12.15;;;13.30;99.90;;;;;;5052049;28;20480;-41
2022/11/01 00:39:36;;;;;;;26.35;11.85;;;13.30;99.90;;;;;;5054734;28;20080;-41
2022/11/01 00:42:03;;;;;;;21.13;11.02;;;13.30;99.90;;;;;;5054592;28;20088;-41
2022/11/01 00:44:30;;;;;;;26.23;10.80;;;13.30;99.90;;;;;;5030651;28;20136;-41
2022/11/01 00:46:57;;;;;;;22.90;10.57;;;13.30;99.90;;;;;;5034421;28;20115;-41
2022/11/01 00:49:25;;;;;;;20.58;10.13;;;13.40;99.90;;;;;;5054366;28;20104;-41
2022/11/01 00:51:52;;;;;;;20.05;10.13;;;13.40;99.90;;;;;;5054530;28;20076;-41
2022/11/01 00:54:19;;;;;;;26.55;10.65;;;13.40;99.90;;;;;;5050663;28;20041;-42
2022/11/01 00:56:45;;;;;;;21.20;9.63;;;13.40;99.90;;;;;;5035645;28;20512;-41
2022/11/01 00:59:12;;;;;;;21.02;9.70;;;13.50;99.90;;;;;;5053022;28;20335;-41
2022/11/01 01:01:39;;;;;;;26.27;9.43;;;13.50;99.90;;;;;;5052979;28;20061;-41
2022/11/01 01:04:06;;;;;;;21.38;9.45;;;13.50;99.90;;;;;;5050088;28;20076;-43
2022/11/01 01:06:34;;;;;;;23.42;9.23;;;13.60;99.90;;;;;;5052859;28;20517;-42
2022/11/01 01:09:01;;;;;;;23.33;9.10;;;13.60;99.90;;;;;;5038801;28;20138;-41
2022/11/01 01:11:28;;;;;;;24.10;10.10;;;13.70;99.90;;;;;;5050979;28;20080;-41
2022/11/01 01:13:54;;;;;;;16.40;8.32;;;13.80;99.90;;;;;;5031237;28;20497;-42
2022/11/01 01:16:21;;;;;;;22.35;8.43;;;13.80;99.90;;;;;;5025959;28;20144;-43
2022/11/01 01:18:48;;;;;;;16.92;8.57;;;13.90;99.90;;;;;;5032788;28;20144;-40
2022/11/01 01:21:16;;;;;;;26.50;9.82;;;14.00;99.90;;;;;;5052782;28;20479;-43
2022/11/01 01:23:45;;;;;;;17.08;8.90;;;14.00;99.90;;;;;;5033547;28;20053;-41
2022/11/01 01:26:12;;;;;;;18.77;8.63;;;14.00;99.90;;;;;;5031311;28;20049;-41
2022/11/01 01:28:39;;;;;;;17.65;8.80;;;14.10;99.90;;;;;;5033639;28;20495;-42
2022/11/01 01:31:07;;;;;;;23.20;8.73;;;14.10;99.90;;;;;;5035759;28;20048;-42
2022/11/01 01:33:33;;;;;;;21.02;8.98;;;14.10;99.90;;;;;;5035093;28;20532;-43
2022/11/01 01:36:00;;;;;;;19.38;8.85;;;14.10;99.90;;;;;;5033907;28;20061;-42
2022/11/01 01:38:27;;;;;;;19.58;8.00;;;14.10;99.90;;;;;;5034311;28;20592;-42
2022/11/01 01:41:54;;;;;;;18.55;8.98;;;14.10;99.90;;;;;;5042340;28;20439;-41
2022/11/01 01:43:42;;;;;;;18.40;9.25;;;14.10;99.90;;;;;;5051529;28;20571;-42
2022/11/01 01:46:09;;;;;;;19.20;8.63;;;14.10;99.90;;;;;;5028942;28;20095;-42
2022/11/01 01:48:36;;;;;;;21.90;8.95;;;14.10;99.90;;;;;;5050203;28;20344;-42
2022/11/01 01:51:03;;;;;;;18.25;8.35;;;14.10;99.90;;;;;;5051616;28;20119;-41
2022/11/01 01:53:31;;;;;;;18.13;7.50;;;14.10;99.90;;;;;;5051359;28;20143;-41
2022/11/01 01:56:01;;;;;;;18.92;7.93;;;14.10;99.90;;;;;;5041146;28;20081;-42
2022/11/01 01:58:29;;;;;;;21.92;7.82;;;14.10;99.90;;;;;;5028656;28;20080;-43
2022/11/01 02:00:55;;;;;;;19.92;7.95;;;14.20;99.90;;;;;;5048907;28;20132;-40
2022/11/01 02:03:22;;;;;;;19.30;8.07;;;14.20;99.90;;;;;;5032426;28;20143;-42
2022/11/01 02:05:51;;;;;;;21.88;7.57;;;14.20;99.90;;;;;;5050677;28;20080;-41
2022/11/01 02:08:25;;;;;;;22.95;8.15;;;14.20;99.90;;;;;;5051345;28;20469;-41
2022/11/01 02:10:52;;;;;;;17.25;7.88;;;14.20;99.90;;;;;;5050280;28;20080;-42
2022/11/01 02:13:20;;;;;;;22.92;8.50;;;14.20;99.90;;;;;;5035007;28;20110;-42
2022/11/01 02:16:01;;;;;;;19.15;7.93;;;14.20;99.90;;;;;;5049208;28;20045;-44
2022/11/01 02:18:33;;;;;;;18.52;7.45;;;14.30;99.90;;;;;;5050330;28;20390;-44
2022/11/01 02:21:20;;;;;;;17.77;7.03;;;14.20;99.90;;;;;;5050180;28;20425;-42
2022/11/01 02:24:23;;;;;;;23.85;7.88;;;14.20;99.90;;;;;;5050259;28;20570;-44
2022/11/01 02:27:17;;;;;;;18.48;7.60;;;14.30;99.90;;;;;;5029215;28;20401;-41
2022/11/01 02:30:01;;;;;;;19.13;7.60;;;14.20;99.90;;;;;;5037848;28;20144;-43
2022/11/01 02:32:33;;;;;;;17.05;7.95;;;14.30;99.90;;;;;;5051159;28;20080;-45
2022/11/01 02:35:02;;;;;;;27.00;8.02;;;14.30;99.90;;;;;;5031435;28;20061;-43
2022/11/01 02:37:30;;;;;;;20.75;7.68;;;14.30;99.90;;;;;;5051613;28;20440;-43
2022/11/01 02:40:00;;;;;;;22.42;8.18;;;14.30;99.90;;;;;;5047701;28;20465;-42
2022/11/01 02:42:28;;;;;;;17.63;7.60;;;14.30;99.90;;;;;;5046623;28;20084;-45
2022/11/01 02:44:57;;;;;;;14.60;7.20;;;14.30;99.90;;;;;;5031899;28;20119;-43
2022/11/01 02:47:24;;;;;;;19.40;7.53;;;14.40;99.90;;;;;;5049328;28;20130;-43
2022/11/01 02:49:54;;;;;;;27.35;8.18;;;14.40;99.90;;;;;;5034593;28;20489;-43
2022/11/01 02:52:22;;;;;;;20.10;7.25;;;14.50;99.90;;;;;;5052132;28;20106;-42
2022/11/01 02:54:50;;;;;;;20.52;7.05;;;14.40;99.90;;;;;;5048747;28;20100;-43
2022/11/01 02:57:32;;;;;;;17.30;7.22;;;14.50;99.90;;;;;;5049754;28;20052;-41
2022/11/01 03:00:03;;;;;;;17.00;6.55;;;14.50;99.90;;;;;;5050266;28;20083;-42
2022/11/01 03:02:39;;;;;;;17.70;6.97;;;14.60;99.90;;;;;;5050010;28;20076;-43
2022/11/01 03:05:11;;;;;;;23.70;8.25;;;14.50;99.90;;;;;;5043810;28;20088;-46
2022/11/01 03:07:38;;;;;;;;;;;14.60;99.90;;;;;;5018281;28;20061;-42
2022/11/01 03:10:06;;;;;;;19.92;6.53;;;14.60;99.90;;;;;;5037732;28;19925;-43
2022/11/01 03:12:34;;;;;;;18.05;6.80;;;14.70;99.90;;;;;;5037112;28;20437;-42
2022/11/01 03:15:04;;;;;;;18.13;7.03;;;14.70;99.90;;;;;;5031128;28;20080;-41
2022/11/01 03:17:32;;;;;;;18.50;7.00;;;14.70;99.90;;;;;;5049982;28;20052;-44
2022/11/01 03:20:01;;;;;;;15.50;6.35;;;14.80;99.90;;;;;;5047826;28;20059;-43
2022/11/01 03:22:30;;;;;;;17.17;6.88;;;14.80;99.90;;;;;;5030372;28;20476;-41
2022/11/01 03:25:01;;;;;;;13.77;6.25;;;14.90;99.90;;;;;;5049924;28;20504;-43
2022/11/01 03:27:31;;;;;;;17.08;6.90;;;15.00;99.90;;;;;;5049719;28;20453;-42
2022/11/01 03:30:03;;;;;;;19.88;7.85;;;15.00;99.90;;;;;;5046520;28;20095;-45
2022/11/01 03:32:32;;;;;;;14.13;6.25;;;15.10;99.90;;;;;;5050214;28;20045;-45
2022/11/01 03:34:59;;;;;;;17.02;7.07;;;15.10;99.90;;;;;;5032238;28;20091;-44
2022/11/01 03:37:26;;;;;;;16.90;6.05;;;15.10;99.90;;;;;;5049134;28;20045;-42
2022/11/01 03:39:55;;;;;;;15.60;6.38;;;15.20;99.90;;;;;;5049929;28;20063;-42
2022/11/01 03:42:22;;;;;;;20.02;7.25;;;15.20;99.90;;;;;;5048994;28;20077;-42
2022/11/01 03:44:50;;;;;;;17.38;6.82;;;15.20;99.90;;;;;;5032789;28;20098;-43
2022/11/01 03:47:17;;;;;;;14.30;6.40;;;15.20;99.90;;;;;;5052101;28;20539;-43
2022/11/01 03:49:43;;;;;;;18.25;6.40;;;15.20;99.90;;;;;;5047963;28;20566;-42
2022/11/01 03:52:10;;;;;;;15.48;6.25;;;15.20;99.90;;;;;;5025909;28;20505;-43
2022/11/01 03:54:37;;;;;;;25.50;6.60;;;15.20;99.90;;;;;;5028816;28;20045;-43
2022/11/01 03:57:05;;;;;;;15.40;6.13;;;15.20;99.90;;;;;;5032314;28;20140;-42
2022/11/01 03:59:32;;;;;;;13.82;5.63;;;15.20;99.90;;;;;;5047647;28;20492;-43
2022/11/01 04:01:59;;;;;;;21.77;6.35;;;15.20;99.90;;;;;;5049445;28;20130;-44
2022/11/01 04:04:25;;;;;;;17.92;6.13;;;15.20;99.90;;;;;;5050091;28;20072;-43
2022/11/01 04:06:52;;;;;;;15.63;6.13;;;15.20;99.90;;;;;;5050361;28;20136;-44
2022/11/01 04:09:19;;;;;;;15.18;5.60;;;15.30;99.90;;;;;;5030825;28;20075;-44
2022/11/01 04:11:46;;;;;;;13.35;5.57;;;15.30;99.90;;;;;;5047654;28;20084;-41
2022/11/01 04:22:26;;;;;;;14.75;5.88;;;15.30;99.90;;;;;;5045756;28;20054;-43
2022/11/01 04:24:53;;;;;;;13.18;5.85;;;15.30;99.90;;;;;;5025287;28;20049;-41
2022/11/01 04:27:20;;;;;;;19.90;6.30;;;15.30;99.90;;;;;;5031578;28;20103;-42
2022/11/01 04:29:48;;;;;;;13.95;5.43;;;15.40;99.90;;;;;;5047715;28;20500;-45
2022/11/01 04:32:15;;;;;;;16.80;6.50;;;15.40;99.90;;;;;;5030873;28;20053;-44
2022/11/01 04:34:42;;;;;;;12.73;5.80;;;15.40;99.90;;;;;;5023797;28;20081;-43
2022/11/01 04:37:09;;;;;;;13.50;5.35;;;15.50;99.90;;;;;;5033670;28;20091;-41
2022/11/01 04:39:36;;;;;;;13.95;5.65;;;15.60;99.90;;;;;;5034751;28;20104;-42
2022/11/01 04:42:02;;;;;;;13.43;5.40;;;15.50;99.90;;;;;;5035181;28;20053;-44
2022/11/01 04:44:29;;;;;;;10.75;5.30;;;15.50;99.90;;;;;;5036467;28;20106;-42
2022/11/01 04:46:57;;;;;;;12.48;5.57;;;15.60;99.90;;;;;;5047365;28;20131;-41
2022/11/01 04:49:24;;;;;;;12.93;4.80;;;15.50;99.90;;;;;;5049093;28;20409;-42
2022/11/01 04:51:51;;;;;;;14.80;5.93;;;15.60;99.90;;;;;;5052629;28;20128;-41
2022/11/01 04:54:18;;;;;;;17.15;5.88;;;15.60;99.90;;;;;;5053652;28;20053;-41
2022/11/01 04:56:44;;;;;;;11.23;5.55;;;15.60;99.90;;;;;;5031030;28;20492;-44
2022/11/01 04:59:11;;;;;;;14.93;5.35;;;15.60;99.90;;;;;;5024374;28;20050;-43
2022/11/01 05:01:38;;;;;;;12.80;6.00;;;15.60;99.90;;;;;;5046848;28;20045;-43
2022/11/01 05:04:06;;;;;;;16.55;5.43;;;15.50;99.90;;;;;;5051998;28;20076;-44
2022/11/01 05:06:33;;;;;;;14.60;5.28;;;15.50;99.90;;;;;;5036019;28;20132;-42
2022/11/01 05:09:00;;;;;;;12.00;5.18;;;15.60;99.90;;;;;;5052147;28;20126;-41
2022/11/01 05:11:26;;;;;;;10.68;5.45;;;15.50;99.90;;;;;;5030783;28;20045;-41
2022/11/01 05:13:53;;;;;;;15.00;5.63;;;15.60;99.90;;;;;;5051822;28;20056;-41
2022/11/01 05:16:20;;;;;;;17.70;6.15;;;15.50;99.90;;;;;;5051702;28;20485;-42
2022/11/01 05:18:47;;;;;;;17.77;5.18;;;15.60;99.90;;;;;;5051851;28;20463;-44
2022/11/01 05:21:15;;;;;;;13.60;5.10;;;15.50;99.90;;;;;;5052129;28;20057;-42
2022/11/01 05:23:42;;;;;;;14.23;5.10;;;15.50;99.90;;;;;;5050786;28;20046;-43
2022/11/01 05:26:09;;;;;;;14.82;5.32;;;15.50;99.90;;;;;;5036090;28;20073;-43
2022/11/01 05:28:35;;;;;;;16.70;5.38;;;15.50;99.90;;;;;;5050566;28;20350;-43
2022/11/01 05:31:02;;;;;;;13.57;5.18;;;15.50;99.90;;;;;;5025546;28;20076;-43
2022/11/01 05:33:29;;;;;;;10.85;4.95;;;15.50;99.90;;;;;;5036515;28;20058;-44
2022/11/01 05:35:56;;;;;;;12.82;4.93;;;15.60;99.90;;;;;;5050532;28;20057;-42
2022/11/01 05:38:24;;;;;;;14.23;4.88;;;15.70;99.90;;;;;;5053874;28;20138;-43
2022/11/01 05:40:51;;;;;;;10.52;4.05;;;15.70;99.90;;;;;;5049824;28;20378;-46
2022/11/01 05:43:17;;;;;;;8.80;4.28;;;15.70;99.90;;;;;;5051044;28;20049;-43
2022/11/01 05:45:44;;;;;;;8.18;3.80;;;15.60;99.90;;;;;;5049722;28;20107;-43
2022/11/01 05:48:11;;;;;;;9.20;3.70;;;15.60;99.90;;;;;;5051539;28;20044;-46
2022/11/01 05:50:38;;;;;;;10.75;3.33;;;15.60;99.90;;;;;;5049316;28;20049;-42
2022/11/01 05:53:05;;;;;;;7.10;2.85;;;15.50;99.90;;;;;;5052304;28;20095;-44
2022/11/01 05:55:34;;;;;;;14.00;2.78;;;15.50;99.90;;;;;;5050983;28;20080;-44
2022/11/01 05:58:00;;;;;;;5.63;2.03;;;15.50;99.90;;;;;;5051871;28;20110;-43
2022/11/01 06:00:27;;;;;;;5.95;2.05;;;15.40;99.90;;;;;;5026488;28;20049;-45
2022/11/01 06:02:54;;;;;;;5.35;1.58;;;15.30;99.90;;;;;;5052692;28;20110;-42
2022/11/01 06:05:21;;;;;;;6.88;1.52;;;15.30;99.90;;;;;;5034064;28;20489;-42
2022/11/01 06:07:48;;;;;;;8.35;1.50;;;15.20;99.90;;;;;;5051230;28;20128;-44
2022/11/01 06:10:14;;;;;;;7.50;1.20;;;15.10;99.90;;;;;;5034126;28;20367;-43
2022/11/01 06:12:42;;;;;;;4.70;1.10;;;15.00;99.90;;;;;;5032929;28;20045;-44
2022/11/01 06:15:10;;;;;;;4.00;1.15;;;15.00;99.90;;;;;;5050026;28;20143;-42
2022/11/01 06:17:37;;;;;;;5.25;1.15;;;14.90;99.90;;;;;;5048840;28;20044;-44
2022/11/01 06:20:04;;;;;;;11.75;1.38;;;14.90;99.90;;;;;;5029176;28;20099;-42
2022/11/01 06:22:31;;;;;;;4.07;1.13;;;14.80;99.90;;;;;;5050057;28;20134;-44
2022/11/01 06:24:58;;;;;;;8.38;1.17;;;14.70;99.90;;;;;;5050941;28;20076;-44
2022/11/01 06:27:24;;;;;;;4.93;1.23;;;14.70;99.90;;;;;;5050385;28;20057;-43
2022/11/01 06:29:53;;;;;;;5.40;1.10;;;14.60;99.90;;;;;;5032859;28;20118;-44
2022/11/01 06:32:19;;;;;;;6.47;1.23;;;14.60;99.90;;;;;;5050330;28;20045;-44
2022/11/01 06:34:46;;;;;;;8.00;1.80;;;14.50;99.90;;;;;;5047057;28;20085;-42
2022/11/01 06:37:13;;;;;;;6.20;1.27;;;14.40;99.90;;;;;;5031096;28;20096;-41
2022/11/01 06:39:40;;;;;;;10.30;1.38;;;14.40;99.90;;;;;;5043702;28;20140;-43
2022/11/01 06:42:06;;;;;;;9.98;1.70;;;14.40;99.90;;;;;;5048861;28;20102;-46
2022/11/01 06:44:33;;;;;;;4.82;0.77;;;14.30;99.90;;;;;;5045135;28;20091;-41
2022/11/01 06:47:01;;;;;;;4.82;1.42;;;14.30;99.90;;;;;;5045670;28;20510;-42
2022/11/01 06:49:29;;;;;;;7.78;1.10;;;14.30;99.90;;;;;;5030572;28;20056;-43
2022/11/01 06:51:56;;;;;;;5.40;1.45;;;14.20;99.90;;;;;;5046838;28;20048;-43
2022/11/01 06:54:23;;;;;;;10.10;1.50;;;14.20;99.90;;;;;;5048749;28;20103;-41
2022/11/01 06:56:49;;;;;;;9.05;1.40;;;14.20;99.90;;;;;;5034261;28;20110;-43
2022/11/01 06:59:16;;;;;;;7.40;1.40;;;14.20;99.90;;;;;;5032390;28;20114;-41
2022/11/01 07:01:43;;;;;;;8.07;1.35;;;14.20;99.90;;;;;;5046121;28;20047;-41
2022/11/01 07:04:11;;;;;;;5.65;1.90;;;14.20;99.90;;;;;;5030164;28;20049;-43
2022/11/01 07:06:38;;;;;;;8.05;1.73;;;14.10;99.90;;;;;;5050050;28;20095;-42
2022/11/01 07:09:05;;;;;;;7.88;1.77;;;14.10;99.90;;;;;;5046283;28;20049;-41
2022/11/01 07:11:32;;;;;;;13.45;1.70;;;14.10;99.90;;;;;;5048268;28;20051;-44
2022/11/01 07:13:59;;;;;;;8.93;1.52;;;14.10;99.90;;;;;;5042742;28;20898;-43
2022/11/01 07:16:26;;;;;;;10.57;1.88;;;14.00;99.90;;;;;;5046767;28;20459;-43
2022/11/01 07:18:52;;;;;;;9.75;1.40;;;14.00;99.90;;;;;;5045017;28;20045;-42
2022/11/01 07:21:21;;;;;;;7.32;1.88;;;14.00;99.90;;;;;;5043774;28;20049;-41
2022/11/01 07:23:48;;;;;;;8.88;1.65;;;13.90;99.90;;;;;;5032553;28;20572;-43
2022/11/01 07:26:15;;;;;;;8.73;1.55;;;13.90;99.90;;;;;;5019897;28;20103;-43
2022/11/01 07:28:42;;;;;;;6.00;1.20;;;14.00;99.90;;;;;;5046796;28;20091;-46
2022/11/01 07:31:08;;;;;;;10.75;1.52;;;14.00;99.90;;;;;;5048489;28;20497;-41
2022/11/01 07:33:35;;;;;;;6.68;1.25;;;14.10;99.90;;;;;;5030435;28;20041;-45
2022/11/01 07:36:02;;;;;;;4.85;1.23;;;14.10;99.90;;;;;;5049001;28;20444;-42
2022/11/01 07:38:31;;;;;;;4.82;0.93;;;14.20;99.90;;;;;;5052317;28;20040;-41
2022/11/01 07:40:57;;;;;;;7.18;1.08;;;14.20;99.90;;;;;;5045753;28;20396;-43
2022/11/01 07:43:24;;;;;;;6.55;1.10;;;14.30;99.90;;;;;;5048558;28;20118;-41
2022/11/01 07:45:51;;;;;;;12.98;1.25;;;14.30;99.90;;;;;;5038470;28;20048;-41
2022/11/01 07:48:19;;;;;;;8.48;1.33;;;14.30;99.90;;;;;;5034433;28;20079;-42
2022/11/01 07:50:46;;;;;;;10.48;1.75;;;14.30;99.90;;;;;;5027077;28;20049;-44
2022/11/01 07:53:14;;;;;;;17.42;1.75;;;14.30;99.90;;;;;;5041564;28;20048;-42
2022/11/01 07:55:42;;;;;;;8.23;1.63;;;14.30;99.90;;;;;;5031146;28;20076;-44
2022/11/01 07:58:09;;;;;;;11.55;1.88;;;14.40;99.90;;;;;;5031692;28;20053;-44
2022/11/01 08:00:36;;;;;;;7.47;1.27;;;14.40;99.90;;;;;;5047679;28;20117;-44
2022/11/01 08:03:03;;;;;;;8.63;1.58;;;14.40;99.90;;;;;;5033639;28;20057;-43
2022/11/01 08:05:30;;;;;;;8.63;1.58;;;14.40;99.90;;;;;;5053628;28;20555;-42
2022/11/01 08:07:57;;;;;;;10.25;1.92;;;14.30;99.90;;;;;;5044372;28;20044;-43
2022/11/01 08:10:23;;;;;;;11.75;1.98;;;14.40;99.90;;;;;;5049248;28;20095;-43
2022/11/01 08:12:52;;;;;;;10.82;1.95;;;14.40;99.90;;;;;;5040766;28;20054;-45
2022/11/01 08:15:18;;;;;;;16.88;2.63;;;14.40;99.90;;;;;;5018614;28;20141;-42
2022/11/01 08:17:45;;;;;;;14.30;2.40;;;14.50;99.90;;;;;;5034348;28;20060;-42
2022/11/01 08:20:12;;;;;;;25.75;2.38;;;14.50;99.90;;;;;;5037200;28;20455;-42
2022/11/01 08:22:39;;;;;;;14.40;2.28;;;14.50;99.90;;;;;;5055195;28;20056;-41
2022/11/01 08:25:07;;;;;;;14.05;2.40;;;14.50;99.90;;;;;;5038106;28;20061;-43
2022/11/01 08:27:33;;;;;;;18.25;2.90;;;14.40;99.90;;;;;;5055444;28;20049;-42
2022/11/01 08:30:01;;;;;;;17.52;3.15;;;14.40;99.90;;;;;;5054821;28;20091;-41
2022/11/01 08:32:28;;;;;;;23.88;2.70;;;14.40;99.90;;;;;;5036036;28;20085;-40
2022/11/01 08:34:55;;;;;;;15.10;2.80;;;14.40;99.90;;;;;;5018262;28;20132;-41
2022/11/01 08:37:22;;;;;;;14.85;2.30;;;14.40;99.90;;;;;;5017875;28;20061;-43
2022/11/01 08:39:49;;;;;;;21.98;3.55;;;14.40;99.90;;;;;;5035590;28;20054;-41
2022/11/01 08:42:16;;;;;;;32.10;4.10;;;14.40;99.90;;;;;;5053376;28;20045;-41
2022/11/01 08:44:42;;;;;;;19.77;3.00;;;14.50;99.90;;;;;;5038001;28;20049;-41
2022/11/01 08:47:10;;;;;;;22.75;3.35;;;14.50;99.90;;;;;;5037473;28;20049;-41
2022/11/01 08:49:37;;;;;;;19.63;3.38;;;14.60;99.90;;;;;;5037671;28;20049;-41
2022/11/01 08:52:04;;;;;;;23.45;3.78;;;14.60;99.90;;;;;;5036358;28;20441;-41
2022/11/01 08:54:31;;;;;;;20.13;3.85;;;14.70;99.90;;;;;;5055277;28;20137;-43
2022/11/01 08:56:58;;;;;;;21.60;2.95;;;14.80;99.90;;;;;;5037411;28;20060;-43
2022/11/01 08:59:25;;;;;;;17.63;3.17;;;14.90;99.90;;;;;;5037562;28;20053;-41
2022/11/01 09:01:51;;;;;;;24.08;3.25;;;14.90;99.90;;;;;;5054272;28;20088;-41
2022/11/01 09:04:20;;;;;;;23.05;3.60;;;14.90;99.90;;;;;;5037439;28;20088;-40
2022/11/01 09:06:46;;;;;;;22.02;3.42;;;15.00;99.90;;;;;;5033005;28;20049;-40
2022/11/01 09:09:13;;;;;;;21.05;3.15;;;15.00;99.90;;;;;;5034448;28;20103;-41
2022/11/01 09:11:40;;;;;;;20.13;3.38;;;15.10;99.90;;;;;;5028395;28;20551;-42
2022/11/01 09:14:07;;;;;;;22.83;3.45;;;15.10;99.90;;;;;;5048970;28;20052;-43
2022/11/01 09:16:34;;;;;;;24.52;3.28;;;15.10;99.90;;;;;;5037206;28;20048;-41
2022/11/01 09:19:01;;;;;;;22.05;3.60;;;15.20;99.90;;;;;;5036633;28;20123;-41
2022/11/01 09:21:29;;;;;;;22.15;3.67;;;15.30;99.90;;;;;;5042551;28;20049;-42
2022/11/01 09:23:57;;;;;;;14.85;3.28;;;15.30;99.90;;;;;;5050812;28;20041;-42
2022/11/01 09:26:25;;;;;;;22.77;3.80;;;15.30;99.90;;;;;;5047213;28;20049;-42
2022/11/01 09:28:53;;;;;;;22.67;2.97;;;15.30;99.90;;;;;;5050355;28;20408;-40
2022/11/01 09:31:20;;;;;;;19.27;3.15;;;15.40;99.90;;;;;;5051131;28;20053;-42
2022/11/01 09:33:47;;;;;;;18.90;3.33;;;15.40;99.90;;;;;;5023057;28;20048;-42
2022/11/01 09:36:14;;;;;;;19.33;3.17;;;15.40;99.90;;;;;;5051225;28;20136;-41
2022/11/01 09:38:42;;;;;;;23.70;3.28;;;15.50;99.90;;;;;;5057386;28;20067;-42
2022/11/01 09:41:13;;;;;;;21.52;3.42;;;15.50;99.90;;;;;;5051724;28;20508;-41
2022/11/01 09:43:40;;;;;;;19.50;3.17;;;15.50;99.90;;;;;;5050147;28;20099;-42
2022/11/01 09:46:07;;;;;;;22.38;2.90;;;15.60;99.90;;;;;;5034266;28;20088;-44
2022/11/01 09:48:34;;;;;;;18.50;2.90;;;15.60;99.90;;;;;;5059379;28;20041;-42
2022/11/01 09:51:01;;;;;;;23.33;3.03;;;15.70;99.90;;;;;;5051490;28;20386;-41
2022/11/01 09:53:28;;;;;;;22.10;3.50;;;15.70;99.90;;;;;;5035458;28;20102;-41
2022/11/01 09:55:58;;;;;;;20.73;3.75;;;15.70;99.90;;;;;;5053004;28;20095;-41
2022/11/01 09:58:30;;;;;;;18.77;3.45;;;15.70;99.90;;;;;;5050674;28;20103;-42
2022/11/01 10:01:03;;;;;;;23.90;3.97;;;15.80;99.90;;;;;;5051854;28;20087;-41
2022/11/01 10:03:38;;;;;;;16.90;3.40;;;15.90;99.90;;;;;;5052293;28;20057;-41
2022/11/01 10:06:09;;;;;;;17.17;3.00;;;15.90;99.90;;;;;;5035193;28;20489;-41
2022/11/01 10:08:42;;;;;;;14.45;2.72;;;15.90;99.90;;;;;;5035145;28;20045;-42
2022/11/01 10:11:28;;;;;;;18.10;3.00;;;15.90;99.90;;;;;;5050748;28;20049;-41
2022/11/01 10:13:57;;;;;;;22.88;3.40;;;15.80;99.90;;;;;;5032762;28;20095;-42
2022/11/01 10:16:30;;;;;;;27.15;3.85;;;15.90;99.90;;;;;;5043684;28;20084;-41
2022/11/01 10:19:02;;;;;;;16.05;3.00;;;16.00;99.90;;;;;;5034263;28;20061;-41
2022/11/01 10:21:30;;;;;;;19.95;2.67;;;16.10;99.90;;;;;;5033248;28;20465;-42
2022/11/01 10:23:57;;;;;;;19.17;3.75;;;16.00;99.90;;;;;;5052746;28;20417;-42
2022/11/01 10:26:26;;;;;;;22.10;2.83;;;16.00;99.90;;;;;;5033832;28;20056;-43
2022/11/01 10:28:57;;;;;;;20.95;2.80;;;16.00;99.90;;;;;;5033591;28;20044;-41
2022/11/01 10:31:24;;;;;;;22.50;3.30;;;15.90;99.90;;;;;;5051106;28;20497;-42
2022/11/01 10:33:53;;;;;;;24.52;3.85;;;15.90;99.90;;;;;;5052069;28;20497;-42
2022/11/01 10:36:23;;;;;;;18.50;3.03;;;15.80;99.90;;;;;;5048688;28;20446;-41
2022/11/01 10:38:51;;;;;;;25.80;3.13;;;15.90;99.90;;;;;;5034707;28;20175;-41
2022/11/01 10:41:22;;;;;;;21.98;3.50;;;15.90;99.90;;;;;;5032237;28;20106;-41
2022/11/01 10:43:51;;;;;;;19.13;3.22;;;15.90;99.90;;;;;;5033708;28;20098;-42
2022/11/01 10:46:20;;;;;;;18.75;3.03;;;15.90;99.90;;;;;;5051331;28;20110;-41
2022/11/01 10:48:48;;;;;;;23.85;3.88;;;15.80;99.90;;;;;;5051105;28;20405;-42
2022/11/01 10:51:16;;;;;;;20.17;2.92;;;15.80;99.90;;;;;;5033204;28;20052;-42
2022/11/01 10:53:43;;;;;;;18.38;3.35;;;15.90;99.90;;;;;;5032627;28;20114;-41
2022/11/01 10:56:12;;;;;;;21.77;3.58;;;15.90;99.90;;;;;;5049450;28;20493;-42
2022/11/01 10:58:41;;;;;;;22.38;3.47;;;15.80;99.90;;;;;;5051482;28;20049;-41
2022/11/01 11:01:11;;;;;;;24.08;3.78;;;15.80;99.90;;;;;;5052374;28;20390;-42
2022/11/01 11:03:39;;;;;;;18.27;3.53;;;15.80;99.90;;;;;;5031471;28;20057;-41
2022/11/01 11:06:09;;;;;;;19.98;3.50;;;15.80;99.90;;;;;;5034118;28;20299;-40
2022/11/01 11:08:36;;;;;;;23.92;3.42;;;15.80;99.90;;;;;;5051599;28;20088;-41
2022/11/01 11:11:04;;;;;;;23.35;3.20;;;15.80;99.90;;;;;;5032325;28;20130;-42
2022/11/01 11:13:30;;;;;;;23.67;3.20;;;15.80;99.90;;;;;;5031122;28;20088;-42
2022/11/01 11:15:59;;;;;;;18.10;3.08;;;15.80;99.90;;;;;;5033970;28;20110;-42
2022/11/01 11:18:28;;;;;;;13.18;3.05;;;15.90;99.90;;;;;;5050027;28;20076;-41
2022/11/01 11:20:56;;;;;;;17.90;3.30;;;16.00;99.90;;;;;;5034008;28;20402;-41
2022/11/01 11:23:23;;;;;;;19.90;3.20;;;16.10;99.90;;;;;;5033611;28;20063;-43
2022/11/01 11:25:50;;;;;;;25.23;3.85;;;16.20;99.90;;;;;;5050059;28;20501;-42
2022/11/01 11:28:23;;;;;;;22.85;3.17;;;16.20;99.90;;;;;;5050124;28;20129;-41
2022/11/01 11:30:50;;;;;;;22.20;3.53;;;16.30;99.90;;;;;;5041924;28;20053;-41
2022/11/01 11:33:17;;;;;;;22.17;3.38;;;16.30;99.90;;;;;;5014244;28;20096;-41
2022/11/01 11:35:58;;;;;;;18.15;2.90;;;16.40;99.90;;;;;;5033738;28;20045;-42
2022/11/01 11:38:42;;;;;;;18.45;2.92;;;16.40;99.90;;;;;;5013468;28;20485;-43
2022/11/01 11:41:10;;;;;;;21.65;2.92;;;16.50;99.90;;;;;;5030145;28;20102;-41
2022/11/01 11:43:40;;;;;;;19.40;2.90;;;16.60;99.90;;;;;;5048774;28;20055;-41
2022/11/01 11:46:12;;;;;;;18.60;3.20;;;16.70;99.90;;;;;;5045509;28;20052;-41
2022/11/01 11:48:46;;;;;;;21.88;3.28;;;16.70;99.90;;;;;;5053440;28;20047;-41
2022/11/01 11:51:14;;;;;;;18.13;2.75;;;16.80;99.90;;;;;;5054698;28;20118;-42
2022/11/01 11:53:41;;;;;;;16.33;3.30;;;16.80;99.90;;;;;;5036947;28;20049;-42
2022/11/01 11:56:08;;;;;;;11.05;2.15;;;16.80;99.90;;;;;;5053461;28;20114;-41
2022/11/01 11:58:36;;;;;;;20.38;3.35;;;16.90;99.90;;;;;;5055223;28;20045;-42
2022/11/01 12:01:04;;;;;;;14.60;2.70;;;16.90;99.90;;;;;;5036696;28;20439;-41
2022/11/01 12:03:32;;;;;;;13.82;2.90;;;17.00;99.90;;;;;;5037455;28;20057;-42
2022/11/01 12:06:00;;;;;;;15.80;2.42;;;17.00;99.90;;;;;;5055030;28;20056;-41
2022/11/01 12:08:52;;;;;;;15.43;3.00;;;17.00;99.90;;;;;;5055027;28;20049;-43
2022/11/01 12:11:19;;;;;;;15.77;2.80;;;17.00;99.90;;;;;;5035746;28;20053;-42
2022/11/01 12:13:46;;;;;;;15.32;2.67;;;17.10;99.90;;;;;;5052597;28;20107;-42
2022/11/01 12:16:23;;;;;;;16.17;2.30;;;17.10;99.90;;;;;;5053609;28;20413;-42
2022/11/01 12:18:54;;;;;;;15.52;2.85;;;17.10;99.90;;;;;;5055007;28;20052;-46
2022/11/01 12:21:26;;;;;;;16.30;2.47;;;17.10;99.90;;;;;;5053912;28;20138;-43
2022/11/01 12:23:57;;;;;;;14.10;2.55;;;17.10;99.90;;;;;;5035335;28;20049;-42
2022/11/01 12:26:23;;;;;;;15.07;2.78;;;17.20;99.90;;;;;;5036073;28;20057;-42
2022/11/01 12:28:57;;;;;;;13.55;2.58;;;17.20;99.90;;;;;;5053886;28;20049;-43
2022/11/01 12:31:24;;;;;;;17.33;2.83;;;17.20;99.90;;;;;;5054809;28;20048;-41
2022/11/01 12:33:53;;;;;;;13.00;1.90;;;17.30;99.90;;;;;;5036168;28;20060;-41
2022/11/01 12:36:22;;;;;;;12.20;2.72;;;17.30;99.90;;;;;;5054563;28;20458;-43
2022/11/01 12:38:49;;;;;;;20.33;2.65;;;17.40;99.90;;;;;;5054455;28;20080;-43
2022/11/01 12:41:24;;;;;;;13.38;2.30;;;17.40;99.90;;;;;;5036773;28;20127;-41
2022/11/01 12:43:56;;;;;;;17.17;2.28;;;17.50;99.90;;;;;;5043117;28;20091;-41
2022/11/01 12:46:25;;;;;;;16.70;2.60;;;17.40;99.90;;;;;;5017073;28;20045;-41
2022/11/01 12:48:54;;;;;;;13.38;2.30;;;17.50;99.90;;;;;;5034447;28;20076;-41
2022/11/01 12:51:22;;;;;;;16.30;2.30;;;17.50;99.90;;;;;;5034327;28;20413;-43